Time;durP1;ratioP1;P1;durP2;ratioP2;P2;SDS_P1;SDS_P2;PMS_P1;PMS_P2;Temp;Humidity;BMP_temperature;BMP_pressure;BME280_temperature;BME280_humidity;BME280_pressure;Samples;Min_cycle;Max_cycle;Signal;HPM_P1;HPM_P2
2021/10/16 00:00:08;;;;;;;5.38;4.50;;;7.60;99.90;;;;;;4853285;29;20211;-90
2021/10/16 00:02:35;;;;;;;6.82;4.40;;;7.60;99.90;;;;;;4853466;29;20220;-90
2021/10/16 00:05:02;;;;;;;5.50;4.35;;;7.60;99.90;;;;;;4853700;29;20283;-91
2021/10/16 00:07:28;;;;;;;6.18;5.05;;;7.50;99.90;;;;;;4853178;29;20223;-91
2021/10/16 00:09:56;;;;;;;6.60;5.40;;;7.50;99.90;;;;;;4853737;29;20200;-90
2021/10/16 00:12:23;;;;;;;5.00;4.50;;;7.50;99.90;;;;;;4862468;29;20228;-91
2021/10/16 00:14:49;;;;;;;5.20;4.70;;;7.50;99.90;;;;;;4861825;29;20207;-90
2021/10/16 00:17:18;;;;;;;6.72;5.13;;;7.50;99.90;;;;;;4861850;29;20204;-90
2021/10/16 00:19:44;;;;;;;6.00;5.40;;;7.50;99.90;;;;;;4862023;29;20581;-91
2021/10/16 00:22:12;;;;;;;5.93;5.13;;;7.60;99.90;;;;;;4855370;29;20224;-90
2021/10/16 00:24:39;;;;;;;5.00;4.60;;;7.60;99.90;;;;;;4852671;29;20208;-90
2021/10/16 00:27:06;;;;;;;8.07;5.25;;;7.60;99.90;;;;;;4853709;29;20207;-91
2021/10/16 00:29:32;;;;;;;7.70;5.90;;;7.50;99.90;;;;;;4851751;29;20219;-90
2021/10/16 00:31:59;;;;;;;5.70;4.78;;;7.50;99.90;;;;;;4851536;29;20217;-90
2021/10/16 00:34:27;;;;;;;6.55;5.70;;;7.50;99.90;;;;;;4851137;29;20204;-90
2021/10/16 00:36:54;;;;;;;7.85;5.40;;;7.50;99.90;;;;;;4851908;29;20204;-91
2021/10/16 00:39:21;;;;;;;5.90;5.30;;;7.50;99.90;;;;;;4853086;29;20223;-91
2021/10/16 00:41:48;;;;;;;9.05;5.20;;;7.50;99.90;;;;;;4852564;29;20267;-91
2021/10/16 00:44:16;;;;;;;5.60;5.00;;;7.50;99.90;;;;;;4851588;29;20224;-91
2021/10/16 00:46:44;;;;;;;8.07;6.20;;;7.60;99.90;;;;;;4852212;29;20197;-90
2021/10/16 00:49:11;;;;;;;5.15;4.70;;;7.60;99.90;;;;;;4853916;29;20207;-90
2021/10/16 00:51:41;;;;;;;6.07;5.45;;;7.60;99.90;;;;;;4854036;29;20224;-92
2021/10/16 00:54:09;;;;;;;6.70;6.00;;;7.60;99.90;;;;;;4853717;29;20204;-91
2021/10/16 00:56:36;;;;;;;7.13;6.35;;;7.60;99.90;;;;;;4850889;29;20200;-92
2021/10/16 00:59:05;;;;;;;8.27;5.22;;;7.60;99.90;;;;;;4851160;29;21230;-91
2021/10/16 01:01:32;;;;;;;6.32;5.25;;;7.70;99.90;;;;;;4852029;29;20311;-91
2021/10/16 01:03:59;;;;;;;5.82;5.32;;;7.70;99.90;;;;;;4853155;29;20843;-91
2021/10/16 01:06:32;;;;;;;6.40;5.22;;;7.70;99.90;;;;;;4850478;29;20205;-90
2021/10/16 01:09:00;;;;;;;6.53;5.85;;;7.70;99.90;;;;;;4851049;29;20219;-90
2021/10/16 01:11:35;;;;;;;5.85;5.25;;;7.70;99.90;;;;;;4853680;29;20237;-90
2021/10/16 01:14:05;;;;;;;6.28;5.18;;;7.80;99.90;;;;;;4851439;29;20195;-90
2021/10/16 01:16:33;;;;;;;6.60;5.38;;;7.80;99.90;;;;;;4853703;29;20254;-90
2021/10/16 01:19:00;;;;;;;7.63;5.88;;;7.80;99.90;;;;;;4851199;29;20212;-90
2021/10/16 01:21:31;;;;;;;6.88;6.28;;;7.80;99.90;;;;;;4852802;29;20228;-91
2021/10/16 01:23:59;;;;;;;7.85;6.88;;;7.90;99.90;;;;;;4851228;29;20224;-90
2021/10/16 01:26:28;;;;;;;6.68;5.70;;;7.90;99.90;;;;;;4852474;29;20204;-91
2021/10/16 01:28:56;;;;;;;7.75;6.25;;;7.90;99.90;;;;;;4851269;29;20235;-90
2021/10/16 01:31:25;;;;;;;8.43;7.10;;;8.00;99.90;;;;;;4850516;29;20220;-90
2021/10/16 01:33:52;;;;;;;7.47;6.25;;;8.00;99.90;;;;;;4850695;29;20212;-90
2021/10/16 01:36:19;;;;;;;7.43;6.43;;;8.00;99.90;;;;;;4850747;29;20203;-91
2021/10/16 01:38:47;;;;;;;7.22;6.03;;;8.00;99.90;;;;;;4857566;29;20208;-90
2021/10/16 01:41:15;;;;;;;6.30;5.70;;;8.00;99.90;;;;;;4860717;29;20236;-91
2021/10/16 01:43:41;;;;;;;7.13;6.13;;;8.10;99.90;;;;;;4860511;29;20232;-91
2021/10/16 01:46:08;;;;;;;6.93;6.22;;;8.10;99.90;;;;;;4860726;29;20223;-90
2021/10/16 01:48:35;;;;;;;6.25;5.65;;;8.10;99.90;;;;;;4860397;29;20211;-91
2021/10/16 01:51:02;;;;;;;7.45;6.30;;;8.10;99.90;;;;;;4860867;29;20235;-91
2021/10/16 01:53:28;;;;;;;9.32;7.13;;;8.10;99.90;;;;;;4860559;29;20697;-90
2021/10/16 01:55:57;;;;;;;6.72;5.45;;;8.10;99.90;;;;;;4861076;29;20286;-91
2021/10/16 01:58:23;;;;;;;7.30;6.45;;;8.10;99.90;;;;;;4863418;29;20493;-91
2021/10/16 02:00:50;;;;;;;7.10;6.30;;;8.20;99.90;;;;;;4879217;29;20236;-89
2021/10/16 02:03:17;;;;;;;7.57;6.50;;;8.20;99.90;;;;;;4863872;29;20262;-91
2021/10/16 02:05:45;;;;;;;7.68;5.88;;;8.20;99.90;;;;;;4861216;29;20208;-90
2021/10/16 02:08:14;;;;;;;7.10;6.40;;;8.20;99.90;;;;;;4861764;29;20216;-90
2021/10/16 02:10:41;;;;;;;8.63;6.35;;;8.20;99.90;;;;;;4862508;29;20235;-90
2021/10/16 02:13:09;;;;;;;7.68;6.75;;;8.20;99.90;;;;;;4863157;29;20212;-91
2021/10/16 02:15:36;;;;;;;6.50;5.85;;;8.30;99.90;;;;;;4862602;29;20681;-91
2021/10/16 02:18:03;;;;;;;7.90;6.57;;;8.30;99.90;;;;;;4862919;29;20271;-91
2021/10/16 02:20:30;;;;;;;6.80;6.20;;;8.30;99.90;;;;;;4862225;29;20227;-91
2021/10/16 02:22:57;;;;;;;6.10;5.50;;;8.30;99.90;;;;;;4862284;29;20215;-91
2021/10/16 02:25:24;;;;;;;6.82;6.20;;;8.30;99.90;;;;;;4861546;29;20207;-91
2021/10/16 02:27:50;;;;;;;7.30;6.43;;;8.30;99.90;;;;;;4861124;29;20678;-91
2021/10/16 02:30:19;;;;;;;9.32;6.95;;;8.40;99.90;;;;;;4861811;29;20219;-91
2021/10/16 02:32:46;;;;;;;7.40;6.70;;;8.40;99.90;;;;;;4860977;29;20215;-90
2021/10/16 02:35:12;;;;;;;7.38;6.40;;;8.40;99.90;;;;;;4861416;29;20207;-91
2021/10/16 02:37:39;;;;;;;6.95;6.20;;;8.40;99.90;;;;;;4861046;29;20216;-90
2021/10/16 02:40:07;;;;;;;7.35;6.63;;;8.40;99.90;;;;;;4861497;29;20211;-89
2021/10/16 02:42:33;;;;;;;8.07;6.18;;;8.40;99.90;;;;;;4861350;29;20219;-91
2021/10/16 02:45:00;;;;;;;6.50;5.35;;;8.40;99.90;;;;;;4860645;29;20238;-91
2021/10/16 02:47:31;;;;;;;6.88;5.55;;;8.40;99.90;;;;;;4861070;29;20215;-90
2021/10/16 02:49:57;;;;;;;6.20;5.60;;;8.40;99.90;;;;;;4860971;29;20211;-91
2021/10/16 02:52:24;;;;;;;7.68;6.00;;;8.40;99.90;;;;;;4861403;29;20240;-90
2021/10/16 02:54:51;;;;;;;6.40;5.80;;;8.40;99.90;;;;;;4861117;29;20222;-90
2021/10/16 02:57:18;;;;;;;6.97;6.28;;;8.40;99.90;;;;;;4860876;29;20592;-91
2021/10/16 02:59:45;;;;;;;6.68;6.00;;;8.40;99.90;;;;;;4860866;29;20219;-91
2021/10/16 03:02:12;;;;;;;7.07;6.20;;;8.40;99.90;;;;;;4860782;29;20232;-91
2021/10/16 03:04:40;;;;;;;7.45;6.72;;;8.40;99.90;;;;;;4861128;29;20232;-90
2021/10/16 03:07:06;;;;;;;9.10;7.40;;;8.40;99.90;;;;;;4860455;29;20223;-90
2021/10/16 03:09:33;;;;;;;8.95;8.05;;;8.40;99.90;;;;;;4863108;29;20658;-91
2021/10/16 03:12:00;;;;;;;9.50;7.65;;;8.40;99.90;;;;;;4864594;29;20235;-92
2021/10/16 03:14:27;;;;;;;9.02;6.75;;;8.40;99.90;;;;;;4864497;29;20208;-90
2021/10/16 03:16:53;;;;;;;8.63;7.20;;;8.30;99.90;;;;;;4863999;29;20218;-89
2021/10/16 03:19:20;;;;;;;8.77;7.68;;;8.30;99.90;;;;;;4864425;29;20219;-90
2021/10/16 03:21:48;;;;;;;10.75;8.40;;;8.30;99.90;;;;;;4864123;29;20242;-90
2021/10/16 03:24:15;;;;;;;9.30;6.90;;;8.30;99.90;;;;;;4864112;29;20228;-90
2021/10/16 03:26:42;;;;;;;7.25;5.85;;;8.30;99.90;;;;;;4863979;29;20208;-90
2021/10/16 03:29:09;;;;;;;9.95;6.90;;;8.30;99.90;;;;;;4863972;29;20212;-91
2021/10/16 03:31:36;;;;;;;9.57;7.82;;;8.30;99.90;;;;;;4863527;29;20231;-90
2021/10/16 03:34:02;;;;;;;9.15;7.38;;;8.30;99.90;;;;;;4863368;29;20199;-90
2021/10/16 03:36:29;;;;;;;11.65;8.35;;;8.30;99.90;;;;;;4863155;29;20219;-91
2021/10/16 03:38:57;;;;;;;10.23;8.15;;;8.30;99.90;;;;;;4863474;29;20705;-90
2021/10/16 03:41:24;;;;;;;11.88;8.00;;;8.30;99.90;;;;;;4863052;29;20239;-90
2021/10/16 03:43:51;;;;;;;11.48;7.63;;;8.30;99.90;;;;;;4863142;29;20283;-90
2021/10/16 03:46:17;;;;;;;10.82;8.48;;;8.40;99.90;;;;;;4863190;29;20219;-91
2021/10/16 03:48:44;;;;;;;11.48;8.00;;;8.40;99.90;;;;;;4862965;29;20215;-90
2021/10/16 03:51:11;;;;;;;11.30;8.77;;;8.40;99.90;;;;;;4863516;29;20232;-90
2021/10/16 03:53:38;;;;;;;10.77;8.52;;;8.40;99.90;;;;;;4862815;29;20216;-90
2021/10/16 03:56:06;;;;;;;16.65;9.27;;;8.40;99.90;;;;;;4863010;29;20218;-90
2021/10/16 03:58:33;;;;;;;10.85;8.63;;;8.40;99.90;;;;;;4862825;29;20658;-91
2021/10/16 04:01:02;;;;;;;21.73;11.90;;;8.40;99.90;;;;;;4863495;29;20232;-89
2021/10/16 04:03:29;;;;;;;15.25;9.98;;;8.50;99.90;;;;;;4864600;29;20211;-91
2021/10/16 04:05:56;;;;;;;16.05;10.48;;;8.40;99.90;;;;;;4863400;29;20650;-91
2021/10/16 04:08:23;;;;;;;15.73;10.80;;;8.50;99.90;;;;;;4862485;29;20231;-91
2021/10/16 04:10:50;;;;;;;18.45;11.38;;;8.50;99.90;;;;;;4862204;29;20299;-91
2021/10/16 04:13:18;;;;;;;20.70;12.63;;;8.50;99.90;;;;;;4862481;29;20678;-90
2021/10/16 04:15:45;;;;;;;18.73;11.90;;;8.50;99.90;;;;;;4862747;29;20611;-91
2021/10/16 04:18:12;;;;;;;20.35;12.27;;;8.50;99.90;;;;;;4863436;29;20646;-90
2021/10/16 04:20:39;;;;;;;16.20;11.40;;;8.50;99.90;;;;;;4862382;29;20231;-90
2021/10/16 04:23:06;;;;;;;15.00;10.90;;;8.50;99.90;;;;;;4862206;29;20230;-90
2021/10/16 04:25:32;;;;;;;21.80;11.88;;;8.50;99.90;;;;;;4861472;29;20231;-90
2021/10/16 04:27:59;;;;;;;16.73;11.73;;;8.50;99.90;;;;;;4861776;29;20674;-90
2021/10/16 04:30:28;;;;;;;18.92;11.63;;;8.60;99.90;;;;;;4862047;29;20733;-90
2021/10/16 04:32:55;;;;;;;18.80;12.38;;;8.60;99.90;;;;;;4861790;29;20215;-90
2021/10/16 04:35:22;;;;;;;20.27;11.00;;;8.60;99.90;;;;;;4861846;29;20257;-91
2021/10/16 04:37:49;;;;;;;15.40;10.25;;;8.60;99.90;;;;;;4861264;29;20214;-90
2021/10/16 04:40:18;;;;;;;18.55;12.00;;;8.60;99.90;;;;;;4862858;29;20206;-91
2021/10/16 04:42:45;;;;;;;16.08;11.70;;;8.60;99.90;;;;;;4863156;29;20750;-90
2021/10/16 04:45:13;;;;;;;19.70;12.45;;;8.60;99.90;;;;;;4862999;29;20729;-90
2021/10/16 04:47:42;;;;;;;22.48;14.27;;;8.60;99.90;;;;;;4861346;29;20710;-90
2021/10/16 04:50:11;;;;;;;27.13;15.82;;;8.70;99.90;;;;;;4861481;29;20211;-91
2021/10/16 04:52:38;;;;;;;19.70;13.35;;;8.70;99.90;;;;;;4861564;29;20211;-91
2021/10/16 04:55:06;;;;;;;24.20;14.60;;;8.70;99.90;;;;;;4861157;29;20204;-91
2021/10/16 04:57:33;;;;;;;21.85;13.95;;;8.70;99.90;;;;;;4861094;29;20211;-90
2021/10/16 05:00:00;;;;;;;21.55;13.77;;;8.70;99.90;;;;;;4861674;29;20670;-91
2021/10/16 05:02:27;;;;;;;19.75;13.40;;;8.70;99.90;;;;;;4861741;29;20239;-91
2021/10/16 05:04:55;;;;;;;21.02;12.40;;;8.70;99.90;;;;;;4861644;29;20223;-92
2021/10/16 05:07:22;;;;;;;19.05;12.70;;;8.70;99.90;;;;;;4874112;29;20212;-90
2021/10/16 05:09:49;;;;;;;16.10;11.13;;;8.70;99.90;;;;;;4873799;29;20215;-90
2021/10/16 05:12:16;;;;;;;18.95;12.48;;;8.70;99.90;;;;;;4864113;29;20262;-91
2021/10/16 05:14:43;;;;;;;21.52;11.27;;;8.70;99.90;;;;;;4860864;29;20240;-90
2021/10/16 05:17:10;;;;;;;17.15;10.52;;;8.70;99.90;;;;;;4860780;29;20230;-90
2021/10/16 05:19:37;;;;;;;16.67;10.68;;;8.70;99.90;;;;;;4860891;29;20204;-91
2021/10/16 05:22:05;;;;;;;13.63;9.60;;;8.70;99.90;;;;;;4861422;29;20238;-89
2021/10/16 05:24:32;;;;;;;14.80;10.60;;;8.70;99.90;;;;;;4860697;29;20230;-90
2021/10/16 05:26:59;;;;;;;13.95;9.95;;;8.70;99.90;;;;;;4861043;29;20204;-90
2021/10/16 05:29:26;;;;;;;16.60;12.02;;;8.70;99.90;;;;;;4861065;29;20215;-90
2021/10/16 05:31:53;;;;;;;18.75;10.90;;;8.70;99.90;;;;;;4860482;29;20232;-90
2021/10/16 05:34:19;;;;;;;18.30;11.95;;;8.70;99.90;;;;;;4861320;29;20212;-90
2021/10/16 05:36:46;;;;;;;15.45;10.05;;;8.70;99.90;;;;;;4861063;29;20222;-90
2021/10/16 05:39:14;;;;;;;14.40;9.40;;;8.70;99.90;;;;;;4862870;29;20215;-89
2021/10/16 05:41:41;;;;;;;13.82;9.77;;;8.80;99.90;;;;;;4879465;23;20858;-73
2021/10/16 05:44:08;;;;;;;12.82;8.77;;;9.00;99.90;;;;;;4858490;29;20207;-73
2021/10/16 05:46:36;;;;;;;13.15;10.60;;;9.20;99.90;;;;;;4858356;29;20861;-72
2021/10/16 05:49:04;;;;;;;12.73;9.20;;;9.20;99.90;;;;;;4858874;29;20200;-72
2021/10/16 05:51:31;;;;;;;11.48;8.88;;;9.30;99.90;;;;;;4858701;29;20211;-73
2021/10/16 05:53:58;;;;;;;9.35;8.23;;;9.40;99.90;;;;;;4858866;29;20271;-73
2021/10/16 05:56:26;;;;;;;11.45;7.53;;;9.30;99.90;;;;;;4857797;29;20228;-72
2021/10/16 05:58:58;;;;;;;9.55;7.93;;;9.20;99.90;;;;;;4858608;29;20216;-73
2021/10/16 06:01:25;;;;;;;8.30;7.38;;;9.10;99.90;;;;;;4858539;29;20306;-73
2021/10/16 06:03:52;;;;;;;12.50;8.40;;;9.00;99.90;;;;;;4858669;29;20237;-72
2021/10/16 06:06:19;;;;;;;8.20;7.25;;;8.90;99.90;;;;;;4857871;29;20239;-73
2021/10/16 06:08:46;;;;;;;9.52;7.97;;;8.90;99.90;;;;;;4858609;29;20218;-73
2021/10/16 06:11:12;;;;;;;8.85;6.97;;;8.80;99.90;;;;;;4858163;29;20234;-72
2021/10/16 06:13:41;;;;;;;8.63;7.70;;;8.80;99.90;;;;;;4858506;29;20208;-73
2021/10/16 06:16:07;;;;;;;11.60;7.70;;;8.80;99.90;;;;;;4857907;29;20280;-73
2021/10/16 06:18:34;;;;;;;8.75;7.30;;;8.80;99.90;;;;;;4858334;29;20265;-73
2021/10/16 06:21:03;;;;;;;8.95;7.30;;;8.70;99.90;;;;;;4858700;29;20579;-73
2021/10/16 06:23:29;;;;;;;9.45;8.00;;;8.70;99.90;;;;;;4858115;29;20237;-73
2021/10/16 06:25:56;;;;;;;8.85;7.95;;;8.70;99.90;;;;;;4857538;29;20243;-73
2021/10/16 06:28:23;;;;;;;8.48;7.68;;;8.70;99.90;;;;;;4858197;29;20211;-73
2021/10/16 06:30:51;;;;;;;8.18;7.15;;;8.70;99.90;;;;;;4858329;29;20208;-72
2021/10/16 06:33:18;;;;;;;10.35;8.50;;;8.70;99.90;;;;;;4858159;29;20214;-73
2021/10/16 06:35:45;;;;;;;9.55;7.45;;;8.70;99.90;;;;;;4857586;29;20223;-73
2021/10/16 06:38:12;;;;;;;8.13;7.32;;;8.70;99.90;;;;;;4858039;29;20599;-71
2021/10/16 06:40:39;;;;;;;12.20;7.35;;;8.80;99.90;;;;;;4858322;29;20204;-72
2021/10/16 06:43:06;;;;;;;9.95;7.22;;;8.80;99.90;;;;;;4859788;29;20227;-73
2021/10/16 06:45:33;;;;;;;8.18;7.07;;;8.80;99.90;;;;;;4861659;29;20712;-71
2021/10/16 06:48:01;;;;;;;9.98;8.35;;;8.80;99.90;;;;;;4861478;29;20210;-72
2021/10/16 06:50:28;;;;;;;7.57;6.78;;;8.80;99.90;;;;;;4861879;29;20218;-72
2021/10/16 06:52:54;;;;;;;8.98;7.32;;;8.80;99.90;;;;;;4862122;29;20254;-72
2021/10/16 06:55:21;;;;;;;8.65;7.70;;;8.80;99.90;;;;;;4861542;29;20629;-72
2021/10/16 06:57:48;;;;;;;8.18;7.10;;;8.80;99.90;;;;;;4860958;29;20214;-72
2021/10/16 07:00:15;;;;;;;10.90;8.88;;;8.80;99.90;;;;;;4861551;29;20680;-72
2021/10/16 07:02:42;;;;;;;12.43;7.95;;;8.80;99.90;;;;;;4861794;29;20207;-71
2021/10/16 07:05:10;;;;;;;10.27;8.57;;;8.80;99.90;;;;;;4861240;29;20234;-72
2021/10/16 07:07:37;;;;;;;11.00;8.38;;;8.80;99.90;;;;;;4860806;29;20298;-72
2021/10/16 07:10:04;;;;;;;20.98;12.50;;;8.80;99.90;;;;;;4861363;29;20204;-73
2021/10/16 07:12:32;;;;;;;18.92;11.52;;;8.90;99.90;;;;;;4861454;29;20211;-74
2021/10/16 07:14:59;;;;;;;17.05;11.40;;;8.90;99.90;;;;;;4861561;29;20260;-75
2021/10/16 07:17:26;;;;;;;19.20;11.95;;;8.90;99.90;;;;;;4861057;29;20306;-73
2021/10/16 07:19:53;;;;;;;24.27;14.57;;;8.90;99.90;;;;;;4866490;29;20207;-73
2021/10/16 07:22:21;;;;;;;27.90;15.90;;;8.90;99.90;;;;;;4870893;29;20199;-73
2021/10/16 07:24:49;;;;;;;22.05;13.45;;;8.90;99.90;;;;;;4869843;29;20239;-74
2021/10/16 07:27:15;;;;;;;29.25;16.20;;;8.90;99.90;;;;;;4868850;29;20200;-71
2021/10/16 07:29:43;;;;;;;33.50;19.75;;;8.90;99.90;;;;;;4870985;29;20206;-76
2021/10/16 07:32:10;;;;;;;33.75;18.63;;;9.00;99.90;;;;;;4869512;29;20204;-72
2021/10/16 07:34:36;;;;;;;36.67;20.80;;;9.00;99.90;;;;;;4869225;29;20230;-73
2021/10/16 07:37:03;;;;;;;35.45;19.20;;;9.00;99.90;;;;;;4870923;29;20683;-73
2021/10/16 07:39:31;;;;;;;35.80;20.73;;;9.00;99.90;;;;;;4876008;29;20214;-70
2021/10/16 07:41:58;;;;;;;36.80;20.10;;;9.10;99.90;;;;;;4869918;29;20207;-72
2021/10/16 07:44:25;;;;;;;36.75;20.80;;;9.10;99.90;;;;;;4867697;29;20683;-71
2021/10/16 07:46:52;;;;;;;27.02;16.63;;;9.10;99.90;;;;;;4868532;29;20242;-72
2021/10/16 07:49:18;;;;;;;26.55;14.95;;;9.10;99.90;;;;;;4869500;29;20759;-73
2021/10/16 07:51:45;;;;;;;29.25;16.50;;;9.10;99.90;;;;;;4869614;29;20200;-70
2021/10/16 07:54:12;;;;;;;28.92;17.23;;;9.10;99.90;;;;;;4866648;29;20226;-72
2021/10/16 07:56:40;;;;;;;29.00;16.58;;;9.20;99.90;;;;;;4868608;29;20200;-72
2021/10/16 07:59:07;;;;;;;32.97;17.63;;;9.20;99.90;;;;;;4869650;29;20578;-71
2021/10/16 08:01:33;;;;;;;29.08;17.55;;;9.30;99.90;;;;;;4866720;29;20212;-73
2021/10/16 08:04:00;;;;;;;32.35;16.58;;;9.20;99.90;;;;;;4868177;29;20200;-70
2021/10/16 08:06:27;;;;;;;32.10;17.90;;;9.20;99.90;;;;;;4867842;29;20255;-72
2021/10/16 08:08:54;;;;;;;33.42;19.15;;;9.30;99.90;;;;;;4869049;29;20196;-72
2021/10/16 08:11:20;;;;;;;33.72;19.98;;;9.30;99.90;;;;;;4867688;29;20207;-71
2021/10/16 08:13:48;;;;;;;30.40;18.75;;;9.40;99.90;;;;;;4866765;29;20207;-72
2021/10/16 08:16:15;;;;;;;32.50;19.15;;;9.30;99.90;;;;;;4868520;29;20215;-74
2021/10/16 08:18:42;;;;;;;29.90;18.25;;;9.40;99.90;;;;;;4867224;29;20200;-72
2021/10/16 08:21:09;;;;;;;34.45;19.67;;;9.40;99.90;;;;;;4867576;29;20207;-73
2021/10/16 08:23:36;;;;;;;34.83;20.08;;;9.40;99.90;;;;;;4868373;29;20208;-72
2021/10/16 08:26:02;;;;;;;31.08;18.02;;;9.50;99.90;;;;;;4866606;29;20235;-72
2021/10/16 08:28:31;;;;;;;35.50;18.50;;;9.50;99.90;;;;;;4867736;29;20203;-73
2021/10/16 08:31:04;;;;;;;31.02;19.15;;;9.50;99.90;;;;;;4869181;29;20210;-74
2021/10/16 08:33:33;;;;;;;31.13;18.75;;;9.60;99.90;;;;;;4868437;29;20208;-73
2021/10/16 08:36:00;;;;;;;32.90;19.00;;;9.60;99.90;;;;;;4866750;29;20223;-71
2021/10/16 08:38:27;;;;;;;35.38;19.27;;;9.70;99.90;;;;;;4867620;29;20226;-73
2021/10/16 08:40:54;;;;;;;35.50;21.67;;;9.70;99.90;;;;;;4868829;29;20207;-74
2021/10/16 08:43:21;;;;;;;33.72;20.05;;;9.70;99.90;;;;;;4867033;29;20259;-72
2021/10/16 08:45:48;;;;;;;35.97;21.17;;;9.70;99.90;;;;;;4867041;29;20700;-73
2021/10/16 08:48:17;;;;;;;40.88;22.08;;;9.70;99.90;;;;;;4869478;29;20691;-73
2021/10/16 08:50:47;;;;;;;39.80;19.88;;;9.80;99.90;;;;;;4861265;29;20214;-73
2021/10/16 08:53:14;;;;;;;44.88;21.63;;;9.80;99.90;;;;;;4866222;29;20585;-72
2021/10/16 08:55:42;;;;;;;36.03;19.45;;;9.70;99.90;;;;;;4863802;29;20223;-70
2021/10/16 08:58:08;;;;;;;31.38;19.77;;;9.80;99.90;;;;;;4868230;29;20256;-72
2021/10/16 09:00:51;;;;;;;32.47;19.00;;;9.80;99.90;;;;;;4866859;29;20207;-73
2021/10/16 09:03:21;;;;;;;41.45;21.35;;;9.80;99.90;;;;;;4867158;29;20203;-72
2021/10/16 09:06:11;;;;;;;30.90;18.60;;;9.80;99.90;;;;;;4865396;29;20234;-71
2021/10/16 09:08:41;;;;;;;30.77;16.90;;;9.80;99.90;;;;;;4864565;29;20661;-72
2021/10/16 09:11:25;;;;;;;30.98;16.92;;;9.90;99.90;;;;;;4863548;29;20199;-73
2021/10/16 09:13:55;;;;;;;21.00;14.45;;;9.90;99.90;;;;;;4863177;29;20206;-73
2021/10/16 09:16:27;;;;;;;20.38;12.48;;;9.90;99.90;;;;;;4856118;29;20713;-73
2021/10/16 09:18:59;;;;;;;22.05;12.48;;;9.90;99.90;;;;;;4857268;29;20691;-73
2021/10/16 09:21:27;;;;;;;16.77;12.38;;;9.90;99.90;;;;;;4858954;29;20214;-73
2021/10/16 09:24:06;;;;;;;18.55;12.30;;;9.90;99.90;;;;;;4876245;29;20579;-73
2021/10/16 09:26:34;;;;;;;21.92;12.10;;;9.90;99.90;;;;;;4875078;29;20240;-74
2021/10/16 09:29:11;;;;;;;16.52;12.52;;;10.00;99.90;;;;;;5099767;27;20548;-73
2021/10/16 09:31:39;;;;;;;24.48;13.38;;;10.00;99.90;;;;;;5086409;28;20671;-74
2021/10/16 09:34:07;;;;;;;19.45;13.30;;;10.00;99.90;;;;;;5086078;28;20192;-73
2021/10/16 09:36:35;;;;;;;17.38;13.30;;;10.00;99.90;;;;;;5065123;28;20201;-74
2021/10/16 09:39:04;;;;;;;19.45;13.63;;;10.00;99.90;;;;;;5065614;28;20579;-75
2021/10/16 09:41:35;;;;;;;20.15;14.52;;;10.00;99.90;;;;;;5065078;28;20208;-75
2021/10/16 09:44:03;;;;;;;21.85;14.70;;;10.00;99.90;;;;;;5065824;28;20291;-74
2021/10/16 09:46:31;;;;;;;23.02;15.13;;;10.10;99.90;;;;;;5067682;28;20865;-74
2021/10/16 09:49:08;;;;;;;17.83;14.30;;;10.10;99.90;;;;;;5068013;28;20239;-75
2021/10/16 09:51:51;;;;;;;20.95;14.07;;;10.10;99.90;;;;;;5077257;28;20726;-75
2021/10/16 09:54:18;;;;;;;20.98;14.85;;;10.20;99.90;;;;;;5086722;28;20219;-74
2021/10/16 09:56:45;;;;;;;18.83;13.15;;;10.20;99.90;;;;;;5087307;28;20229;-75
2021/10/16 09:59:15;;;;;;;22.08;14.05;;;10.20;99.90;;;;;;5087137;28;20216;-73
2021/10/16 10:01:46;;;;;;;21.45;13.65;;;10.30;99.90;;;;;;5087003;28;20196;-74
2021/10/16 10:04:31;;;;;;;25.02;15.05;;;10.30;99.90;;;;;;5086211;28;20590;-74
2021/10/16 10:07:11;;;;;;;24.08;14.43;;;10.40;99.90;;;;;;5085329;28;20265;-74
2021/10/16 10:09:41;;;;;;;21.85;14.98;;;10.40;99.90;;;;;;5066473;28;20207;-74
2021/10/16 10:12:09;;;;;;;23.73;15.07;;;10.50;99.90;;;;;;5066702;28;20262;-74
2021/10/16 10:14:39;;;;;;;23.42;15.90;;;10.50;99.90;;;;;;5066320;28;20240;-76
2021/10/16 10:17:31;;;;;;;22.33;16.05;;;10.60;99.90;;;;;;5064823;28;20663;-74
2021/10/16 10:20:04;;;;;;;22.23;16.98;;;10.70;99.90;;;;;;5064741;28;20201;-73
2021/10/16 10:22:34;;;;;;;21.20;15.45;;;10.70;99.90;;;;;;5065043;28;20209;-74
2021/10/16 10:25:13;;;;;;;24.52;16.10;;;10.80;99.90;;;;;;5065460;28;20229;-73
2021/10/16 10:27:46;;;;;;;22.48;16.83;;;10.80;99.90;;;;;;5064484;28;20246;-73
2021/10/16 10:30:41;;;;;;;24.20;16.90;;;10.90;99.90;;;;;;5064825;28;20200;-74
2021/10/16 10:33:34;;;;;;;24.90;16.73;;;10.90;99.90;;;;;;5065458;28;20197;-74
2021/10/16 10:36:23;;;;;;;26.42;16.60;;;11.00;99.90;;;;;;5064033;28;20209;-73
2021/10/16 10:38:50;;;;;;;23.17;16.95;;;11.10;99.90;;;;;;5061197;28;20221;-74
2021/10/16 10:41:35;;;;;;;28.17;17.55;;;11.10;99.90;;;;;;5052116;28;20598;-75
2021/10/16 10:44:05;;;;;;;23.40;16.30;;;11.10;99.90;;;;;;5052860;28;20607;-74
2021/10/16 10:46:41;;;;;;;30.20;18.88;;;11.20;99.90;;;;;;5052623;28;20212;-75
2021/10/16 10:49:12;;;;;;;26.08;17.05;;;11.20;99.90;;;;;;5053167;28;20283;-74
2021/10/16 10:51:40;;;;;;;26.38;19.10;;;11.30;99.90;;;;;;5052903;28;20229;-74
2021/10/16 10:54:12;;;;;;;29.02;19.70;;;11.30;99.90;;;;;;5051842;28;20197;-74
2021/10/16 10:56:57;;;;;;;25.70;17.70;;;11.40;99.90;;;;;;5052093;28;20213;-74
2021/10/16 10:59:34;;;;;;;;;;;;;;;;;;;;;
2021/10/16 11:02:03;;;;;;;26.05;18.58;;;11.40;99.90;;;;;;5052590;28;20215;-73
2021/10/16 11:04:57;;;;;;;26.52;17.88;;;11.50;99.90;;;;;;5051652;28;20225;-74
2021/10/16 11:07:39;;;;;;;22.17;15.50;;;11.50;99.90;;;;;;5051028;28;20691;-74
2021/10/16 11:10:07;;;;;;;25.70;17.58;;;11.50;99.90;;;;;;5049039;28;20227;-74
2021/10/16 11:12:36;;;;;;;24.05;17.75;;;11.50;99.90;;;;;;5051308;28;20233;-74
2021/10/16 11:15:04;;;;;;;22.08;15.07;;;11.50;99.90;;;;;;5051419;28;20237;-75
2021/10/16 11:17:40;;;;;;;23.25;16.08;;;11.60;99.90;;;;;;5050752;28;20209;-74
2021/10/16 11:20:11;;;;;;;20.60;14.35;;;11.60;99.90;;;;;;5051311;28;20287;-74
2021/10/16 11:22:55;;;;;;;19.58;16.17;;;11.60;99.90;;;;;;5051401;28;20201;-74
2021/10/16 11:25:24;;;;;;;22.77;14.88;;;11.60;99.90;;;;;;5051692;28;20585;-74
2021/10/16 11:28:01;;;;;;;23.63;16.05;;;11.70;99.90;;;;;;5051523;28;20232;-74
2021/10/16 11:30:28;;;;;;;18.73;15.25;;;11.70;99.90;;;;;;5051944;28;20200;-74
2021/10/16 11:33:00;;;;;;;20.77;15.48;;;11.80;99.90;;;;;;5051927;28;20205;-75
2021/10/16 11:35:29;;;;;;;18.13;15.10;;;11.80;99.90;;;;;;5051913;28;20243;-74
2021/10/16 11:37:55;;;;;;;17.75;13.95;;;11.80;99.90;;;;;;5047252;28;20205;-75
2021/10/16 11:40:25;;;;;;;20.60;13.18;;;11.80;99.90;;;;;;5052465;28;20211;-75
2021/10/16 11:42:54;;;;;;;22.38;13.20;;;11.80;99.90;;;;;;5052161;28;20201;-73
2021/10/16 11:45:24;;;;;;;16.58;13.00;;;11.90;99.90;;;;;;5051862;28;20596;-74
2021/10/16 11:47:53;;;;;;;17.02;13.45;;;12.00;99.90;;;;;;5051175;28;20225;-73
2021/10/16 11:50:22;;;;;;;13.52;12.13;;;12.00;99.90;;;;;;5050548;28;20205;-74
2021/10/16 11:52:52;;;;;;;14.40;11.85;;;12.00;99.90;;;;;;5051365;28;20208;-73
2021/10/16 11:55:22;;;;;;;16.50;13.55;;;12.10;99.90;;;;;;5051776;28;20221;-74
2021/10/16 11:57:50;;;;;;;16.83;13.40;;;12.20;99.90;;;;;;5050630;28;20200;-73
2021/10/16 12:00:22;;;;;;;15.55;11.88;;;12.30;99.90;;;;;;5051959;28;20197;-73
2021/10/16 12:02:50;;;;;;;17.60;13.10;;;12.50;99.90;;;;;;5051232;28;20205;-74
2021/10/16 12:05:18;;;;;;;15.60;11.90;;;13.10;99.90;;;;;;5051538;28;20486;-73
2021/10/16 12:07:45;;;;;;;14.10;11.50;;;13.70;99.90;;;;;;5050561;28;20460;-73
2021/10/16 12:10:29;;;;;;;12.53;11.23;;;14.40;99.90;;;;;;5051143;28;20466;-74
2021/10/16 12:13:01;;;;;;;15.70;11.97;;;15.30;99.90;;;;;;5051573;28;20459;-74
2021/10/16 12:15:35;;;;;;;15.40;11.20;;;16.10;99.90;;;;;;5051039;28;20566;-73
2021/10/16 12:18:03;;;;;;;15.03;11.40;;;16.70;99.90;;;;;;5049953;28;20452;-74
2021/10/16 12:20:30;;;;;;;12.30;9.80;;;17.30;99.90;;;;;;5051439;28;20463;-74
2021/10/16 12:22:58;;;;;;;10.77;9.73;;;17.60;99.90;;;;;;5044730;28;20464;-74
2021/10/16 12:25:27;;;;;;;10.63;9.53;;;17.90;99.90;;;;;;5048326;28;20833;-74
2021/10/16 12:28:02;;;;;;;10.87;9.70;;;18.20;99.90;;;;;;5049135;28;20857;-74
2021/10/16 12:30:29;;;;;;;11.47;9.33;;;18.40;99.90;;;;;;5050176;28;20574;-73
2021/10/16 12:33:03;;;;;;;9.73;8.43;;;18.40;99.90;;;;;;5046573;28;20974;-74
2021/10/16 12:35:31;;;;;;;10.87;9.67;;;18.60;99.90;;;;;;5049741;28;20895;-74
2021/10/16 12:37:58;;;;;;;10.20;9.17;;;18.60;99.90;;;;;;5049344;28;20471;-74
2021/10/16 12:40:39;;;;;;;11.37;9.10;;;18.70;99.90;;;;;;5050290;28;20464;-73
2021/10/16 12:43:27;;;;;;;8.80;7.90;;;18.60;99.90;;;;;;5049644;28;20470;-74
2021/10/16 12:45:54;;;;;;;9.93;9.03;;;18.70;99.90;;;;;;5049714;28;20491;-74
2021/10/16 12:48:31;;;;;;;8.90;7.97;;;18.60;99.90;;;;;;5049467;28;20493;-75
2021/10/16 12:51:02;;;;;;;15.47;9.13;;;18.70;99.90;;;;;;5049703;28;20462;-74